• Join FlightAware (Why Join?)
  • Login
  • US Flag 
09:49PM EDT


 

Airport Tracker/Info


-or-


 

Live Flight TrackerFlight Track Log ✈ N777NC ✈ 09-Jul-2013 ✈ KATL - KHSV

Flight Track Log - Related Links

Times and Time Zones

All times are in EDT time to prevent confusion due to time zone crossing. See the N777NC flight status page for this flight to view local times or setup timezone preferences in your user account.

Time Position Orientation Groundspeed Altitude Reporting Facility
EDT Latitude Longitude Course Direction KTS MPH feet Rate Location/Type
12:51PM 33.6500 -84.4833 284° West 212 244 2,700  Level Atlanta TRACON
12:52PM 33.6667 -84.5667 284° West 265 305 6,400 3,300 Climbing Atlanta TRACON
12:53PM 33.6833 -84.6667 281° West 285 328 9,300 2,580 Climbing Atlanta TRACON
12:55PM 33.6639 -84.9075 265° West 337 388 15,300 2,460 Climbing Atlanta Center
12:56PM 33.6525 -85.0269 263° West 356 410 17,700 2,280 Climbing Atlanta Center
12:57PM 33.6472 -85.1467 267° West 365 420 19,900 2,040 Climbing Atlanta Center
12:58PM 33.6733 -85.2794 283° West 365 420 21,800 1,020 Climbing Atlanta Center
12:59PM 33.7072 -85.4147 287° West 382 440 22,000 60 Climbing Atlanta Center
01:00PM 33.7683 -85.5381 301° West 413 475 22,000  Level Atlanta Center
01:01PM 33.8317 -85.6617 302° West 435 501 22,000  Level Atlanta Center
01:02PM 33.8819 -85.7953 294° West 445 512 22,000 -180 Level Atlanta Center
01:03PM 33.9514 -85.8919 311° West 438 504 21,700 -1,500 Descending Atlanta Center
01:04PM 34.0397 -85.9967 316° Northwest 435 501 19,000 -2,940 Descending Atlanta Center
01:06PM 34.2278 -86.1819 321° Northwest 404 465 12,900 -2,700 Descending Memphis Center
01:07PM 34.3175 -86.2481 329° Northwest 399 459 10,900 -1,080 Descending Memphis Center
01:08PM 34.3986 -86.3047 330° Northwest 374 430 10,800 -420 Descending Memphis Center
01:09PM 34.4878 -86.3533 336° Northwest 352 405 10,100 -420 Descending Memphis Center
01:10PM 34.5692 -86.4200 326° Northwest 352 405 10,000 -600 Descending Memphis Center
01:11PM 34.6400 -86.4772 326° Northwest 332 382 8,900 -1,380 Descending Memphis Center
01:12PM 34.7003 -86.5378 320° Northwest 299 344 7,300 -1,620 Descending Memphis Center
01:13PM 34.7581 -86.5908 323° Northwest 279 321 5,700 -1,560 Descending Memphis Center
01:14PM 34.7978 -86.6572 306° West 256 295 4,200 -1,200 Descending Memphis Center
01:15PM 34.7853 -86.7261 258° West 205 236 3,300 -900 Descending Memphis Center
01:16PM 34.7464 -86.7606 216° Southwest 160 184 2,400 -960 Descending Memphis Center
01:17PM 34.6967 -86.7653 184° South 154 177 1,400 -900 Descending Memphis Center
01:18PM 34.6569 -86.7669 182° South 148 170 700 -360 Descending Memphis Center
01:19PM 34.6222 -86.7886 207° Southwest 148 170 700  Level Memphis Center